createdAt,value
2019-04-23T00:01:58.780Z,52.60
2019-04-23T00:04:26.500Z,52.70
2019-04-23T00:09:32.993Z,52.70
2019-04-23T00:12:13.292Z,52.70
2019-04-23T00:14:46.008Z,52.70
2019-04-23T00:17:15.037Z,52.50
2019-04-23T00:19:40.032Z,52.80
2019-04-23T00:22:36.758Z,52.80
2019-04-23T00:25:41.602Z,52.80
2019-04-23T00:27:51.517Z,52.70
2019-04-23T00:30:18.717Z,52.80
2019-04-23T00:32:51.627Z,53.00
2019-04-23T00:35:18.057Z,53.00
2019-04-23T00:37:47.430Z,53.10
2019-04-23T00:40:28.803Z,53.20
2019-04-23T00:42:47.946Z,53.90
2019-04-23T00:45:24.550Z,53.40
2019-04-23T00:47:57.658Z,53.40
2019-04-23T00:52:57.644Z,53.60
2019-04-23T00:55:29.968Z,53.70
2019-04-23T00:58:09.767Z,53.80
2019-04-23T01:03:06.953Z,54.00
2019-04-23T01:05:35.227Z,54.30
2019-04-23T01:08:09.259Z,54.40
2019-04-23T01:11:02.096Z,54.60
2019-04-23T01:13:31.318Z,54.60
2019-04-23T01:16:08.537Z,54.90
2019-04-23T01:18:46.909Z,54.80
2019-04-23T01:20:54.807Z,54.80
2019-04-23T01:23:53.815Z,54.90
2019-04-23T01:26:40.636Z,54.90
2019-04-23T01:29:12.911Z,54.90
2019-04-23T01:31:49.061Z,54.90
2019-04-23T01:34:20.121Z,55.00
2019-04-23T01:36:41.256Z,55.20
2019-04-23T01:39:19.076Z,55.20
2019-04-23T01:41:57.751Z,55.30
2019-04-23T01:44:21.689Z,55.50
2019-04-23T01:46:54.506Z,55.60
2019-04-23T01:49:32.775Z,55.60
2019-04-23T01:51:53.184Z,55.70
2019-04-23T01:54:26.051Z,55.80
2019-04-23T01:56:56.621Z,55.90
2019-04-23T01:59:25.806Z,56.00
2019-04-23T02:01:58.765Z,56.10
2019-04-23T02:04:28.933Z,56.20
2019-04-23T02:09:35.735Z,56.40
2019-04-23T02:12:05.928Z,56.50
2019-04-23T02:14:39.032Z,56.70
2019-04-23T02:17:12.052Z,56.70
2019-04-23T02:19:38.944Z,56.80
2019-04-23T02:22:30.912Z,56.90
2019-04-23T02:25:30.353Z,57.10
2019-04-23T02:27:52.271Z,57.10
2019-04-23T02:30:49.381Z,57.20
2019-04-23T02:35:32.882Z,57.40
2019-04-23T02:40:37.833Z,57.50
2019-04-23T02:43:06.917Z,57.50
2019-04-23T02:45:45.796Z,57.60
2019-04-23T02:53:05.207Z,58.20
2019-04-23T02:55:45.550Z,58.30
2019-04-23T02:58:11.012Z,58.40
2019-04-23T03:00:55.716Z,58.70
2019-04-23T03:03:10.325Z,58.70
2019-04-23T03:05:46.601Z,58.70
2019-04-23T03:08:13.655Z,58.80
2019-04-23T03:16:25.373Z,58.90
2019-04-23T03:19:18.800Z,59.20
2019-04-23T03:22:15.285Z,59.50
2019-04-23T03:25:10.734Z,59.50
2019-04-23T03:30:16.993Z,59.90
2019-04-23T03:32:51.989Z,60.10
2019-04-23T03:36:17.313Z,60.20
2019-04-23T03:37:44.854Z,60.30
2019-04-23T03:43:01.264Z,60.70
2019-04-23T03:45:27.861Z,60.80
2019-04-23T03:47:54.485Z,61.20
2019-04-23T03:50:35.916Z,61.40
2019-04-23T03:52:47.060Z,61.90
2019-04-23T03:57:52.654Z,62.80
2019-04-23T04:03:10.447Z,63.40
2019-04-23T04:05:52.629Z,63.90
2019-04-23T04:08:07.412Z,64.30
2019-04-23T04:10:41.305Z,64.80
2019-04-23T04:12:57.611Z,65.50
2019-04-23T04:20:46.986Z,67.00
2019-04-23T04:25:41.177Z,67.80
2019-04-23T04:28:14.141Z,68.70
2019-04-23T04:30:47.539Z,69.00
2019-04-23T04:36:00.713Z,70.30
2019-04-23T04:38:36.490Z,71.20
2019-04-23T04:41:01.236Z,71.30
2019-04-23T04:53:46.746Z,73.80
2019-04-23T04:56:12.863Z,75.70
2019-04-23T05:03:26.655Z,78.90
2019-04-23T05:13:54.893Z,81.10
2019-04-23T05:16:06.393Z,81.50
2019-04-23T05:19:40.775Z,81.60
2019-04-23T05:22:07.080Z,83.20
2019-04-23T05:27:02.510Z,84.50
2019-04-23T05:29:36.632Z,85.90
2019-04-23T05:31:58.192Z,85.50
2019-04-23T05:34:32.138Z,87.50
2019-04-23T05:37:06.404Z,86.50
2019-04-23T05:42:05.702Z,87.40
2019-04-23T05:44:48.043Z,87.40
2019-04-23T05:47:17.124Z,88.00
2019-04-23T05:49:46.713Z,88.10
2019-04-23T05:52:29.686Z,87.90
2019-04-23T05:54:52.430Z,89.50
2019-04-23T05:57:19.803Z,89.10
2019-04-23T06:00:02.417Z,89.50
2019-04-23T06:02:26.219Z,87.80
2019-04-23T06:04:52.880Z,86.60
2019-04-23T06:07:28.796Z,87.40
2019-04-23T06:09:53.149Z,88.10
2019-04-23T06:12:21.514Z,87.60
2019-04-23T06:14:53.803Z,89.40
2019-04-23T06:17:21.336Z,89.00
2019-04-23T06:19:58.536Z,88.80
2019-04-23T06:22:38.636Z,88.90
2019-04-23T06:25:01.381Z,88.80
2019-04-23T06:27:27.421Z,86.60
2019-04-23T06:29:57.722Z,88.60
2019-04-23T06:32:32.961Z,87.00
2019-04-23T06:35:01.521Z,88.30
2019-04-23T06:37:49.427Z,87.10
2019-04-23T06:40:03.165Z,87.20
2019-04-23T06:42:49.789Z,86.80
2019-04-23T06:45:14.435Z,86.30
2019-04-23T06:47:43.053Z,87.70
2019-04-23T06:50:14.900Z,87.90
2019-04-23T06:52:50.686Z,86.70
2019-04-23T06:55:20.574Z,84.30
2019-04-23T06:57:58.676Z,82.00
2019-04-23T07:00:27.232Z,82.20
2019-04-23T07:03:05.126Z,82.10
2019-04-23T07:05:30.518Z,79.40
2019-04-23T07:07:59.671Z,81.30
2019-04-23T07:10:33.343Z,80.60
2019-04-23T07:13:03.595Z,79.80
2019-04-23T07:18:03.971Z,78.30
2019-04-23T07:20:46.472Z,76.60
2019-04-23T07:23:14.135Z,75.90
2019-04-23T07:25:39.941Z,75.10
2019-04-23T07:28:18.044Z,76.00
2019-04-23T07:30:52.450Z,74.90
2019-04-23T07:33:18.615Z,74.30
2019-04-23T07:35:49.472Z,71.80
2019-04-23T07:38:47.509Z,71.60
2019-04-23T07:41:25.265Z,73.60
2019-04-23T07:44:10.976Z,74.00
2019-04-23T07:46:53.361Z,71.20
2019-04-23T07:49:11.901Z,69.80
2019-04-23T07:51:50.059Z,70.00
2019-04-23T07:54:16.334Z,68.90
2019-04-23T07:56:55.353Z,69.50
2019-04-23T07:59:20.751Z,69.60
2019-04-23T08:01:52.353Z,69.50
2019-04-23T08:04:19.812Z,69.60
2019-04-23T08:06:54.263Z,69.10
2019-04-23T08:09:24.543Z,69.80
2019-04-23T08:11:45.877Z,67.00
2019-04-23T08:14:13.557Z,66.90
2019-04-23T08:16:50.272Z,67.60
2019-04-23T08:19:33.126Z,67.10
2019-04-23T08:22:06.516Z,67.30
2019-04-23T08:24:55.915Z,66.30
2019-04-23T08:30:07.643Z,67.00
2019-04-23T08:32:38.589Z,66.30
2019-04-23T08:35:14.138Z,66.60
2019-04-23T08:40:13.210Z,65.20
2019-04-23T08:43:09.058Z,63.10
2019-04-23T08:45:28.371Z,64.20
2019-04-23T08:50:54.635Z,63.80
2019-04-23T08:58:30.161Z,62.20
2019-04-23T09:00:59.130Z,61.30
2019-04-23T09:08:42.330Z,61.10
2019-04-23T09:16:05.185Z,59.20
2019-04-23T09:18:32.263Z,58.90
2019-04-23T09:21:07.409Z,59.20
2019-04-23T09:23:40.939Z,59.00
2019-04-23T09:26:22.385Z,58.70
2019-04-23T09:31:30.363Z,57.10
2019-04-23T09:34:17.139Z,57.10
2019-04-23T09:37:25.046Z,57.20
2019-04-23T09:39:59.529Z,57.20
2019-04-23T09:45:46.841Z,56.90
2019-04-23T09:48:04.536Z,56.30
2019-04-23T09:50:46.488Z,56.40
2019-04-23T09:53:26.929Z,56.10
2019-04-23T09:55:51.338Z,55.80
2019-04-23T09:58:16.780Z,55.20
2019-04-23T10:00:48.691Z,55.90
2019-04-23T10:03:09.087Z,55.50
2019-04-23T10:05:38.937Z,55.20
2019-04-23T10:08:06.587Z,56.10
2019-04-23T10:10:30.137Z,55.80
2019-04-23T10:13:00.200Z,55.90
2019-04-23T10:15:34.987Z,54.80
2019-04-23T10:18:02.404Z,53.80
2019-04-23T10:20:32.068Z,54.80
2019-04-23T10:23:02.249Z,54.30
2019-04-23T10:25:31.989Z,54.60
2019-04-23T10:28:06.623Z,54.20
2019-04-23T10:30:33.626Z,54.50
2019-04-23T10:33:03.350Z,52.80
2019-04-23T10:35:41.493Z,52.60
2019-04-23T10:38:08.263Z,53.30
2019-04-23T10:40:39.878Z,53.60
2019-04-23T10:43:07.484Z,53.90
2019-04-23T10:46:29.574Z,53.60
2019-04-23T10:49:42.766Z,53.10
2019-04-23T10:54:37.671Z,52.30
2019-04-23T10:57:01.604Z,52.30
2019-04-23T10:59:38.927Z,52.40
2019-04-23T11:04:54.073Z,52.50
2019-04-23T11:07:28.554Z,52.30
2019-04-23T11:13:05.748Z,52.20
2019-04-23T11:15:48.038Z,51.80
2019-04-23T11:17:59.136Z,51.30
2019-04-23T11:23:00.487Z,51.50
2019-04-23T11:25:42.594Z,51.70
2019-04-23T11:30:46.422Z,51.70
2019-04-23T11:33:22.089Z,51.50
2019-04-23T11:40:53.477Z,51.50
2019-04-23T11:43:29.277Z,50.50
2019-04-23T11:46:07.995Z,50.90
2019-04-23T11:48:47.996Z,50.20
2019-04-23T11:51:39.453Z,50.50
2019-04-23T11:53:46.495Z,50.00
2019-04-23T11:58:39.263Z,50.40
2019-04-23T12:04:31.455Z,49.20
2019-04-23T12:07:17.610Z,48.80
2019-04-23T12:10:19.992Z,49.10
2019-04-23T12:20:21.215Z,50.00
2019-04-23T12:22:57.486Z,49.40
2019-04-23T12:27:42.372Z,49.60
2019-04-23T12:33:10.576Z,48.70
2019-04-23T12:35:29.029Z,49.10
2019-04-23T12:38:07.349Z,49.90
2019-04-23T12:43:14.521Z,48.90
2019-04-23T12:45:40.502Z,48.00
2019-04-23T12:50:50.094Z,48.70
2019-04-23T12:53:23.578Z,48.40
2019-04-23T12:55:43.649Z,48.20
2019-04-23T12:58:22.070Z,48.50
2019-04-23T13:00:44.418Z,48.60
2019-04-23T13:05:51.337Z,48.00
2019-04-23T13:10:50.124Z,48.20
2019-04-23T13:15:51.934Z,48.00
2019-04-23T13:20:58.585Z,47.60
2019-04-23T13:23:32.518Z,48.20
2019-04-23T13:25:57.525Z,47.30
2019-04-23T13:28:34.003Z,47.90
2019-04-23T13:31:08.459Z,48.20
2019-04-23T13:41:19.128Z,48.50
2019-04-23T13:46:13.329Z,47.90
2019-04-23T13:48:40.034Z,48.60
2019-04-23T13:51:21.126Z,48.50
2019-04-23T13:53:47.955Z,48.10
2019-04-23T13:58:51.805Z,47.90
2019-04-23T14:01:26.298Z,48.00
2019-04-23T14:06:36.540Z,48.20
2019-04-23T14:11:26.505Z,47.60
2019-04-23T14:21:37.242Z,47.60
2019-04-23T14:24:11.827Z,47.90
2019-04-23T14:29:02.064Z,48.10
2019-04-23T14:31:28.343Z,48.30
2019-04-23T14:36:36.136Z,48.00
2019-04-23T14:39:06.116Z,47.80
2019-04-23T14:41:31.947Z,47.70
2019-04-23T14:49:25.900Z,47.50
2019-04-23T14:52:00.148Z,47.70
2019-04-23T14:57:08.032Z,47.60
2019-04-23T14:59:19.880Z,47.60
2019-04-23T15:02:05.530Z,47.10
2019-04-23T15:04:39.659Z,47.70
2019-04-23T15:07:10.900Z,48.30
2019-04-23T15:09:44.184Z,47.60
2019-04-23T15:12:17.349Z,47.60
2019-04-23T15:17:14.286Z,47.60
2019-04-23T15:19:55.466Z,47.70
2019-04-23T15:25:09.368Z,47.80
2019-04-23T15:28:03.526Z,48.30
2019-04-23T15:29:50.038Z,48.10
2019-04-23T15:32:35.020Z,47.90
2019-04-23T15:35:07.835Z,48.00
2019-04-23T15:42:29.517Z,48.10
2019-04-23T15:47:40.067Z,48.40
2019-04-23T15:52:48.320Z,47.10
2019-04-23T15:55:05.551Z,47.40
2019-04-23T16:00:05.289Z,47.40
2019-04-23T16:02:14.757Z,47.10
2019-04-23T16:04:44.253Z,46.90
2019-04-23T16:07:29.899Z,47.60
2019-04-23T16:10:19.113Z,47.60
2019-04-23T16:12:47.713Z,47.70
2019-04-23T16:15:21.321Z,47.80
2019-04-23T16:18:07.551Z,47.70
2019-04-23T16:22:51.329Z,47.90
2019-04-23T16:25:27.987Z,47.50
2019-04-23T16:28:03.277Z,47.90
2019-04-23T16:30:36.498Z,48.10
2019-04-23T16:43:20.758Z,48.00
2019-04-23T16:51:12.227Z,48.60
2019-04-23T16:53:25.248Z,48.40
2019-04-23T16:56:04.216Z,48.20
2019-04-23T16:58:33.622Z,48.50
2019-04-23T17:03:31.272Z,49.00
2019-04-23T17:08:52.248Z,49.80
2019-04-23T17:11:18.180Z,49.60
2019-04-23T17:13:55.471Z,49.70
2019-04-23T17:18:41.548Z,50.30
2019-04-23T17:23:56.044Z,50.60
2019-04-23T17:26:19.326Z,50.90
2019-04-23T17:28:44.942Z,50.80
2019-04-23T17:33:53.990Z,51.30
2019-04-23T17:39:13.064Z,51.50
2019-04-23T17:42:12.551Z,52.00
2019-04-23T17:44:38.274Z,52.10
2019-04-23T17:47:13.792Z,52.20
2019-04-23T17:49:57.608Z,52.30
2019-04-23T17:54:48.097Z,53.00
2019-04-23T17:57:26.287Z,53.10
2019-04-23T18:00:25.116Z,53.40
2019-04-23T18:07:38.381Z,53.90
2019-04-23T18:10:09.898Z,54.00
2019-04-23T18:12:39.105Z,54.20
2019-04-23T18:15:06.442Z,54.10
2019-04-23T18:17:35.664Z,54.30
2019-04-23T18:20:13.412Z,54.40
2019-04-23T18:22:47.178Z,54.40
2019-04-23T18:25:17.508Z,54.40
2019-04-23T18:27:52.881Z,54.70
2019-04-23T18:31:06.253Z,54.90
2019-04-23T18:34:01.887Z,55.30
2019-04-23T18:36:12.927Z,55.20
2019-04-23T18:38:46.314Z,55.50
2019-04-23T18:41:31.440Z,55.90
2019-04-23T18:43:51.099Z,55.90
2019-04-23T18:46:22.966Z,55.90
2019-04-23T18:48:50.285Z,56.30
2019-04-23T18:51:42.141Z,56.60
2019-04-23T18:56:30.604Z,56.50
2019-04-23T18:59:00.821Z,56.70
2019-04-23T19:01:32.993Z,57.00
2019-04-23T19:06:44.166Z,57.30
2019-04-23T19:10:12.031Z,57.30
2019-04-23T19:15:06.095Z,57.90
2019-04-23T19:20:08.594Z,58.10
2019-04-23T19:22:51.871Z,58.20
2019-04-23T19:25:09.605Z,58.40
2019-04-23T19:27:40.617Z,58.70
2019-04-23T19:30:18.841Z,58.80
2019-04-23T19:32:48.838Z,58.90
2019-04-23T19:35:37.308Z,59.20
2019-04-23T19:40:25.599Z,59.50
2019-04-23T19:42:49.757Z,59.90
2019-04-23T19:45:24.508Z,59.90
2019-04-23T19:48:11.062Z,60.50
2019-04-23T19:50:24.005Z,60.30
2019-04-23T19:55:21.101Z,60.90
2019-04-23T19:58:08.517Z,61.50
2019-04-23T20:00:28.855Z,62.00
2019-04-23T20:05:32.386Z,62.40
2019-04-23T20:08:08.610Z,62.90
2019-04-23T20:10:35.677Z,63.00
2019-04-23T20:13:02.098Z,63.60
2019-04-23T20:15:51.123Z,64.00
2019-04-23T20:17:57.667Z,64.30
2019-04-23T20:20:47.802Z,64.40
2019-04-23T20:23:08.932Z,65.00
2019-04-23T20:28:55.122Z,66.60
2019-04-23T20:31:16.195Z,66.20
2019-04-23T20:34:16.309Z,66.20
2019-04-23T20:36:34.569Z,67.50
2019-04-23T20:41:54.801Z,69.00
2019-04-23T20:46:52.584Z,70.30
2019-04-23T20:49:18.312Z,70.40
2019-04-23T20:51:49.844Z,71.60
2019-04-23T20:54:26.551Z,71.80
2019-04-23T20:57:24.542Z,72.50
2019-04-23T20:59:57.246Z,73.60
2019-04-23T21:02:42.190Z,75.40
2019-04-23T21:05:03.568Z,75.10
2019-04-23T21:07:41.863Z,76.30
2019-04-23T21:12:51.066Z,76.10
2019-04-23T21:15:30.769Z,76.90
2019-04-23T21:22:38.095Z,77.50
2019-04-23T21:25:11.734Z,78.30
2019-04-23T21:30:55.359Z,79.80
2019-04-23T21:33:11.847Z,79.50
2019-04-23T21:38:49.383Z,80.60
2019-04-23T21:51:40.779Z,81.80
2019-04-23T21:53:58.766Z,83.30
2019-04-23T21:56:35.567Z,82.90
2019-04-23T22:01:37.122Z,83.30
2019-04-23T22:09:14.655Z,84.30
2019-04-23T22:16:53.930Z,85.20
2019-04-23T22:21:47.244Z,86.20
2019-04-23T22:29:18.404Z,87.80
2019-04-23T22:31:47.156Z,88.20
2019-04-23T22:34:22.304Z,88.70
2019-04-23T22:37:01.855Z,87.50
2019-04-23T22:41:56.098Z,89.20
2019-04-23T22:44:30.020Z,89.30
2019-04-23T22:47:02.412Z,90.20
2019-04-23T22:54:34.566Z,90.80
2019-04-23T22:57:04.697Z,90.60
2019-04-23T23:02:35.122Z,90.40
2019-04-23T23:05:09.959Z,90.80
2019-04-23T23:07:39.450Z,91.40
2019-04-23T23:10:06.825Z,91.10
2019-04-23T23:12:49.272Z,91.50
2019-04-23T23:15:08.066Z,91.70
2019-04-23T23:17:42.912Z,92.20
2019-04-23T23:20:20.880Z,91.90
2019-04-23T23:22:39.804Z,91.90
2019-04-23T23:25:11.491Z,92.10
2019-04-23T23:27:45.938Z,91.70
2019-04-23T23:30:13.358Z,92.30
2019-04-23T23:35:24.503Z,92.40
2019-04-23T23:37:46.576Z,92.70
2019-04-23T23:40:35.323Z,93.10
2019-04-23T23:42:56.182Z,93.00
2019-04-23T23:47:52.188Z,92.40
2019-04-23T23:50:25.451Z,92.70
2019-04-23T23:52:55.154Z,92.90
2019-04-23T23:55:25.004Z,92.80
2019-04-23T23:57:58.316Z,92.60
